Time;durP1;ratioP1;P1;durP2;ratioP2;P2;SDS_P1;SDS_P2;PMS_P1;PMS_P2;Temp;Humidity;BMP_temperature;BMP_pressure;BME280_temperature;BME280_humidity;BME280_pressure;Samples;Min_cycle;Max_cycle;Signal;HPM_P1;HPM_P2
2023/06/10 00:00:14;;;;;;;5.47;3.90;;;;;;;17.41;100.00;100753.44;6239518;28;20052;-88
2023/06/10 00:03:17;;;;;;;7.50;3.80;;;;;;;17.34;100.00;100752.47;6242380;28;20087;-88
2023/06/10 00:06:21;;;;;;;4.38;3.80;;;;;;;17.26;100.00;100744.59;6258839;28;20399;-88
2023/06/10 00:09:22;;;;;;;4.93;3.08;;;;;;;17.18;100.00;100744.56;6231906;28;20496;-88
2023/06/10 00:12:24;;;;;;;6.15;3.50;;;;;;;17.11;100.00;100746.16;6238926;28;20049;-88
2023/06/10 00:15:26;;;;;;;5.72;3.50;;;;;;;17.07;100.00;100748.31;6240422;28;20168;-88
2023/06/10 00:18:31;;;;;;;5.90;3.33;;;;;;;17.03;100.00;100746.16;6237478;28;20041;-88
2023/06/10 00:21:39;;;;;;;6.05;4.10;;;;;;;16.97;100.00;100740.56;6239100;28;20117;-88
2023/06/10 00:24:43;;;;;;;5.40;3.25;;;;;;;16.93;100.00;100747.09;6253984;28;20569;-88
2023/06/10 00:27:45;;;;;;;4.63;4.10;;;;;;;16.87;100.00;100746.88;6249399;28;20074;-88
2023/06/10 00:30:46;;;;;;;7.78;3.83;;;;;;;16.83;100.00;100741.16;6239359;28;20517;-87
2023/06/10 00:33:48;;;;;;;6.03;3.50;;;;;;;16.78;100.00;100744.25;6239218;28;20490;-88
2023/06/10 00:36:50;;;;;;;6.60;3.92;;;;;;;16.74;100.00;100747.28;6239239;28;20045;-88
2023/06/10 00:39:52;;;;;;;7.43;3.28;;;;;;;16.71;100.00;100745.81;6238830;28;20120;-88
2023/06/10 00:42:54;;;;;;;6.72;3.45;;;;;;;16.69;100.00;100752.97;6237311;28;20052;-88
2023/06/10 00:45:56;;;;;;;4.90;3.88;;;;;;;16.67;100.00;100748.88;6230024;28;20411;-88
2023/06/10 00:48:58;;;;;;;6.00;3.67;;;;;;;16.61;100.00;100749.53;6238497;28;20045;-88
2023/06/10 00:52:03;;;;;;;6.63;3.72;;;;;;;16.50;100.00;100754.03;6236868;28;20041;-87
2023/06/10 00:55:07;;;;;;;6.63;3.78;;;;;;;16.47;100.00;100756.13;6236611;28;20053;-87
2023/06/10 00:58:10;;;;;;;4.82;3.53;;;;;;;16.42;100.00;100748.78;6235165;28;20045;-87
2023/06/10 01:01:12;;;;;;;7.20;3.80;;;;;;;16.37;100.00;100756.22;6239180;28;20052;-87
2023/06/10 01:04:14;;;;;;;6.78;3.83;;;;;;;16.36;100.00;100752.78;6238992;28;20056;-87
2023/06/10 01:07:31;;;;;;;4.55;3.35;;;;;;;16.33;100.00;100747.06;6242365;28;20034;-87
2023/06/10 01:10:52;;;;;;;4.57;3.50;;;;;;;16.32;100.00;100761.09;6235142;28;20041;-87
2023/06/10 01:13:58;;;;;;;5.45;3.60;;;;;;;16.29;100.00;100750.94;6219429;28;21308;-87
2023/06/10 01:17:00;;;;;;;7.43;3.65;;;;;;;16.20;100.00;100757.06;6237839;28;20048;-88
2023/06/10 01:20:04;;;;;;;7.80;4.90;;;;;;;16.14;100.00;100754.09;6225822;28;20056;-87
2023/06/10 01:23:07;;;;;;;6.00;3.85;;;;;;;16.09;100.00;100756.34;6250915;28;20037;-87
2023/06/10 01:26:11;;;;;;;6.63;4.22;;;;;;;16.11;100.00;100762.25;6235075;28;20056;-87
2023/06/10 01:29:33;;;;;;;5.75;3.70;;;;;;;16.05;100.00;100765.47;6247950;28;20052;-87
2023/06/10 01:32:45;;;;;;;5.32;3.60;;;;;;;16.05;100.00;100760.25;6245911;28;20208;-87
2023/06/10 01:35:50;;;;;;;9.55;3.60;;;;;;;16.00;100.00;100766.88;6249121;28;20046;-87
2023/06/10 01:38:53;;;;;;;6.75;3.60;;;;;;;15.98;100.00;100764.44;6261931;28;20037;-87
2023/06/10 01:41:56;;;;;;;5.65;3.13;;;;;;;15.94;100.00;100770.91;6247226;28;20042;-87
2023/06/10 01:44:58;;;;;;;5.82;3.10;;;;;;;15.86;100.00;100771.66;6259976;28;20064;-87
2023/06/10 01:48:00;;;;;;;9.63;3.92;;;;;;;15.86;100.00;100766.44;6249440;28;20529;-87
2023/06/10 01:51:02;;;;;;;4.88;3.60;;;;;;;15.81;100.00;100773.91;6253624;28;20619;-87
2023/06/10 01:54:06;;;;;;;6.72;3.80;;;;;;;15.74;100.00;100767.63;6219457;28;20220;-87
2023/06/10 01:57:07;;;;;;;4.65;3.38;;;;;;;15.69;100.00;100768.09;6220884;28;20430;-87
2023/06/10 02:00:10;;;;;;;6.82;3.97;;;;;;;15.69;100.00;100765.47;6235784;28;20148;-87
2023/06/10 02:03:19;;;;;;;5.68;3.65;;;;;;;15.67;100.00;100769.97;6252268;28;20167;-87
2023/06/10 02:06:21;;;;;;;5.82;3.47;;;;;;;15.66;100.00;100767.53;6244651;28;20045;-87
2023/06/10 02:09:23;;;;;;;8.70;3.95;;;;;;;15.62;100.00;100771.41;6237061;28;20140;-87
2023/06/10 02:12:31;;;;;;;7.97;3.75;;;;;;;15.53;100.00;100778.34;6246963;28;20041;-87
2023/06/10 02:15:33;;;;;;;5.60;3.40;;;;;;;15.47;100.00;100777.13;6237682;28;20113;-87
2023/06/10 02:18:35;;;;;;;7.30;3.47;;;;;;;15.46;100.00;100791.16;6236786;28;20119;-87
2023/06/10 02:21:37;;;;;;;6.78;3.22;;;;;;;15.39;100.00;100791.88;6238588;28;20057;-87
2023/06/10 02:24:39;;;;;;;7.25;4.03;;;;;;;15.33;100.00;100795.06;6233980;28;20046;-87
2023/06/10 02:27:41;;;;;;;6.05;3.80;;;;;;;15.22;100.00;100794.28;6243387;28;20102;-87
2023/06/10 02:30:43;;;;;;;9.60;4.45;;;;;;;15.17;100.00;100801.72;6258556;28;20419;-87
2023/06/10 02:33:46;;;;;;;6.95;3.80;;;;;;;15.12;100.00;100806.53;6242102;28;20048;-87
2023/06/10 02:36:51;;;;;;;8.27;4.07;;;;;;;15.07;100.00;100801.75;6255939;28;20183;-87
2023/06/10 02:39:55;;;;;;;6.93;3.60;;;;;;;15.00;100.00;100802.47;6252250;28;20060;-87
2023/06/10 02:42:58;;;;;;;6.15;3.90;;;;;;;14.95;100.00;100802.91;6224432;28;20049;-87
2023/06/10 02:46:00;;;;;;;8.80;4.45;;;;;;;14.92;100.00;100804.97;6238915;28;20192;-87
2023/06/10 02:49:02;;;;;;;6.10;4.00;;;;;;;14.88;100.00;100801.84;6248804;28;20111;-87
2023/06/10 02:52:06;;;;;;;8.60;4.35;;;;;;;14.85;100.00;100812.53;6259859;28;20373;-87
2023/06/10 02:55:09;;;;;;;7.22;3.92;;;;;;;14.79;100.00;100819.16;6236834;28;20044;-87
2023/06/10 02:58:14;;;;;;;7.60;4.40;;;;;;;14.76;100.00;100816.03;6248396;28;20049;-87
2023/06/10 03:01:18;;;;;;;7.95;4.40;;;;;;;14.75;100.00;100817.78;6246840;28;20041;-87
2023/06/10 03:04:30;;;;;;;9.05;3.90;;;;;;;14.70;100.00;100820.00;6248702;28;20116;-87
2023/06/10 03:07:39;;;;;;;7.15;4.65;;;;;;;14.65;100.00;100815.19;6255945;28;20115;-87
2023/06/10 03:10:41;;;;;;;9.02;4.80;;;;;;;14.67;100.00;100809.03;6246937;28;20049;-87
2023/06/10 03:13:47;;;;;;;6.45;3.70;;;;;;;14.69;100.00;100817.53;6240492;28;20048;-87
2023/06/10 03:16:51;;;;;;;7.88;3.95;;;;;;;14.68;100.00;100816.69;6242785;28;20072;-87
2023/06/10 03:19:55;;;;;;;10.13;4.43;;;;;;;14.65;100.00;100819.59;6249872;28;20499;-87
2023/06/10 03:22:57;;;;;;;6.63;4.68;;;;;;;14.61;100.00;100826.06;6238535;28;20528;-87
2023/06/10 03:26:00;;;;;;;7.28;4.22;;;;;;;14.59;100.00;100820.16;6240981;28;20052;-87
2023/06/10 03:29:05;;;;;;;7.38;4.15;;;;;;;14.62;100.00;100832.91;6232714;28;20128;-88
2023/06/10 03:32:08;;;;;;;11.35;4.65;;;;;;;14.62;100.00;100833.72;6219207;28;20045;-87
2023/06/10 03:35:14;;;;;;;8.85;4.38;;;;;;;14.61;100.00;100831.28;6232752;28;20200;-87
2023/06/10 03:38:16;;;;;;;10.32;4.80;;;;;;;14.58;100.00;100824.56;6234924;28;20037;-87
2023/06/10 03:41:18;;;;;;;7.80;4.63;;;;;;;14.58;100.00;100832.38;6260748;28;20596;-87
2023/06/10 03:44:20;;;;;;;9.02;5.30;;;;;;;14.60;100.00;100827.81;6261358;28;20067;-87
2023/06/10 03:47:22;;;;;;;7.68;4.25;;;;;;;14.60;100.00;100833.03;6240159;28;20053;-87
2023/06/10 03:50:24;;;;;;;7.18;4.45;;;;;;;14.60;100.00;100838.25;6237985;28;20140;-87
2023/06/10 03:53:26;;;;;;;7.28;4.43;;;;;;;14.59;100.00;100831.41;6238518;28;20143;-87
2023/06/10 03:56:32;;;;;;;9.75;4.60;;;;;;;14.58;100.00;100826.31;6238772;28;20089;-87
2023/06/10 03:59:34;;;;;;;7.88;4.45;;;;;;;14.59;100.00;100843.59;6258141;28;20044;-88
2023/06/10 04:02:36;;;;;;;7.68;4.63;;;;;;;14.62;100.00;100844.13;6261449;28;20516;-87
2023/06/10 04:05:38;;;;;;;7.30;4.32;;;;;;;14.58;100.00;100844.56;6246516;28;20095;-87
2023/06/10 04:08:40;;;;;;;9.15;4.72;;;;;;;14.59;100.00;100851.44;6235380;28;20702;-87
2023/06/10 04:11:42;;;;;;;8.25;5.43;;;;;;;14.63;100.00;100853.63;6238527;28;20091;-87
2023/06/10 04:14:43;;;;;;;7.43;4.55;;;;;;;14.66;100.00;100855.13;6233858;28;20061;-88
2023/06/10 04:17:49;;;;;;;8.25;4.45;;;;;;;14.77;100.00;100856.75;6249678;28;20136;-87
2023/06/10 04:20:52;;;;;;;10.38;4.95;;;;;;;14.84;100.00;100857.81;6237689;28;20128;-88
2023/06/10 04:23:54;;;;;;;7.65;5.13;;;;;;;14.89;100.00;100855.63;6261300;28;20048;-87
2023/06/10 04:26:57;;;;;;;11.43;5.63;;;;;;;14.99;100.00;100856.41;6258758;28;20645;-87
2023/06/10 04:29:58;;;;;;;10.43;6.13;;;;;;;15.14;100.00;100855.97;6241372;28;20546;-88
2023/06/10 04:33:00;;;;;;;14.60;6.38;;;;;;;15.22;100.00;100845.63;6238651;28;20075;-87
2023/06/10 04:36:03;;;;;;;13.25;5.63;;;;;;;15.32;100.00;100840.38;6221224;28;20046;-88
2023/06/10 04:39:05;;;;;;;11.13;6.32;;;;;;;15.37;100.00;100848.59;6237129;28;20049;-88
2023/06/10 04:42:08;;;;;;;10.50;6.00;;;;;;;15.52;100.00;100850.56;6222146;28;20053;-88
2023/06/10 04:45:11;;;;;;;11.10;6.25;;;;;;;15.70;100.00;100855.03;6241541;28;20046;-88
2023/06/10 04:48:15;;;;;;;12.05;5.80;;;;;;;15.73;100.00;100849.53;6236414;28;20053;-88
2023/06/10 04:51:17;;;;;;;15.18;6.22;;;;;;;15.79;100.00;100842.91;6235079;28;20045;-87
2023/06/10 04:54:19;;;;;;;12.20;5.57;;;;;;;15.84;100.00;100845.88;6239392;28;20048;-88
2023/06/10 04:57:21;;;;;;;10.32;5.95;;;;;;;15.95;100.00;100848.28;6218902;28;20434;-88
2023/06/10 05:00:23;;;;;;;12.82;6.20;;;;;;;16.09;100.00;100844.31;6238012;28;20080;-88
2023/06/10 05:03:25;;;;;;;12.00;6.63;;;;;;;16.21;100.00;100844.94;6223769;28;20467;-88
2023/06/10 05:06:27;;;;;;;14.43;6.68;;;;;;;16.29;100.00;100839.75;6240050;28;20049;-88
2023/06/10 05:09:29;;;;;;;12.82;7.30;;;;;;;16.25;100.00;100841.06;6239201;28;20042;-88
2023/06/10 05:12:31;;;;;;;10.23;7.00;;;;;;;16.13;100.00;100843.88;6248934;28;20049;-88
2023/06/10 05:15:33;;;;;;;12.48;7.22;;;;;;;16.12;100.00;100839.66;6238365;28;20045;-88
2023/06/10 05:18:35;;;;;;;13.65;6.57;;;;;;;16.08;100.00;100843.50;6239878;28;20046;-88
2023/06/10 05:21:37;;;;;;;11.10;6.20;;;;;;;15.94;100.00;100852.66;6239520;28;20045;-88
2023/06/10 05:24:39;;;;;;;9.10;5.97;;;;;;;15.81;100.00;100852.22;6241251;28;20045;-88
2023/06/10 05:27:42;;;;;;;10.50;7.03;;;;;;;15.69;100.00;100850.75;6250402;28;20049;-87
2023/06/10 05:30:45;;;;;;;12.00;7.07;;;;;;;15.62;100.00;100847.91;6239822;28;20080;-88
2023/06/10 05:33:46;;;;;;;11.70;7.32;;;;;;;15.58;100.00;100843.13;6253261;28;20126;-87
2023/06/10 05:36:48;;;;;;;14.55;8.32;;;;;;;15.52;100.00;100841.91;6255046;28;20147;-88
2023/06/10 05:39:50;;;;;;;15.27;8.65;;;;;;;15.52;100.00;100844.53;6241087;28;20851;-87
2023/06/10 05:42:52;;;;;;;13.18;8.10;;;;;;;15.52;100.00;100841.91;6247336;28;20053;-87
2023/06/10 05:45:53;;;;;;;13.75;7.75;;;;;;;15.52;100.00;100849.75;6249026;28;20045;-88
2023/06/10 05:48:55;;;;;;;14.13;7.07;;;;;;;15.54;100.00;100839.97;6251062;28;20050;-87
2023/06/10 05:51:58;;;;;;;13.20;6.68;;;;;;;15.60;100.00;100849.84;6238049;28;20045;-87
2023/06/10 05:55:01;;;;;;;14.32;7.45;;;;;;;15.72;100.00;100840.03;6236537;28;20038;-88
2023/06/10 05:58:03;;;;;;;13.25;7.28;;;;;;;15.78;100.00;100843.88;6256348;28;20153;-88
2023/06/10 06:01:05;;;;;;;14.27;7.30;;;;;;;15.79;100.00;100833.25;6243249;28;20750;-87
2023/06/10 06:04:07;;;;;;;11.70;6.70;;;;;;;15.78;100.00;100833.44;6239224;28;20048;-87
2023/06/10 06:07:10;;;;;;;11.90;6.80;;;;;;;15.79;100.00;100838.50;6238453;28;20080;-88
2023/06/10 06:10:11;;;;;;;10.98;6.43;;;;;;;15.78;100.00;100841.25;6243724;28;20037;-88
2023/06/10 06:13:13;;;;;;;12.32;6.40;;;;;;;15.75;100.00;100831.94;6249399;28;20133;-87
2023/06/10 06:16:16;;;;;;;15.50;6.57;;;;;;;15.80;100.00;100836.69;6236363;28;20041;-87
2023/06/10 06:19:18;;;;;;;10.90;6.18;;;;;;;15.82;100.00;100845.19;6208754;28;20046;-87
2023/06/10 06:22:21;;;;;;;12.38;6.93;;;;;;;15.88;100.00;100844.63;6245365;28;20486;-88
2023/06/10 06:25:23;;;;;;;14.93;6.63;;;;;;;15.92;100.00;100852.03;6247025;28;20050;-88
2023/06/10 06:28:28;;;;;;;11.90;6.63;;;;;;;15.97;100.00;100846.31;6246897;28;20033;-87
2023/06/10 06:31:31;;;;;;;11.82;6.20;;;;;;;16.04;100.00;100849.19;6243787;28;20044;-87
2023/06/10 06:34:33;;;;;;;12.85;7.13;;;;;;;16.23;100.00;100856.88;6250112;28;20410;-88
2023/06/10 06:37:36;;;;;;;16.10;7.68;;;;;;;16.49;100.00;100856.91;6233507;28;20290;-87
2023/06/10 06:41:02;;;;;;;12.00;6.45;;;;;;;16.66;100.00;100854.44;6249694;28;20057;-87
2023/06/10 06:44:04;;;;;;;14.30;8.07;;;;;;;16.74;100.00;100846.63;6240316;28;20522;-87
2023/06/10 06:47:11;;;;;;;11.77;7.30;;;;;;;16.67;100.00;100850.81;6234798;28;20061;-87
2023/06/10 06:50:13;;;;;;;11.95;7.03;;;;;;;16.61;100.00;100854.88;6234442;28;20100;-87
2023/06/10 06:53:15;;;;;;;16.67;7.85;;;;;;;16.54;100.00;100852.03;6248514;28;20040;-87
2023/06/10 06:56:17;;;;;;;13.05;7.90;;;;;;;16.54;100.00;100846.00;6250305;28;20041;-88
2023/06/10 06:59:22;;;;;;;16.67;8.35;;;;;;;16.54;100.00;100851.22;6239416;28;20045;-87
2023/06/10 07:02:24;;;;;;;13.00;7.40;;;;;;;16.61;100.00;100854.06;6255628;28;20045;-87
2023/06/10 07:05:27;;;;;;;14.23;7.25;;;;;;;16.68;100.00;100852.47;6245237;28;20136;-87
2023/06/10 07:08:29;;;;;;;13.48;7.63;;;;;;;16.75;100.00;100859.56;6260420;28;20056;-87
2023/06/10 07:11:31;;;;;;;16.23;8.07;;;;;;;16.78;100.00;100853.22;6240602;28;20041;-87
2023/06/10 07:14:32;;;;;;;13.05;7.60;;;;;;;16.80;100.00;100859.13;6237877;28;20038;-87
2023/06/10 07:17:34;;;;;;;17.20;8.52;;;;;;;16.84;100.00;100859.63;6242061;28;20045;-87
2023/06/10 07:20:36;;;;;;;11.93;7.40;;;;;;;16.90;100.00;100864.25;6246963;28;20041;-87
2023/06/10 07:23:42;;;;;;;15.32;8.25;;;;;;;16.94;100.00;100868.19;6251158;28;20048;-87
2023/06/10 07:26:46;;;;;;;13.98;8.55;;;;;;;16.95;100.00;100865.44;6257893;28;20596;-87
2023/06/10 07:29:48;;;;;;;13.02;8.23;;;;;;;16.99;100.00;100865.94;6253207;28;20041;-87
2023/06/10 07:32:51;;;;;;;19.48;8.73;;;;;;;17.02;100.00;100873.50;6252413;28;20049;-86
2023/06/10 07:35:53;;;;;;;14.75;8.60;;;;;;;17.06;100.00;100872.19;6251220;28;20495;-87
2023/06/10 07:38:55;;;;;;;15.00;8.32;;;;;;;17.19;100.00;100874.38;6242257;28;20115;-87
2023/06/10 07:41:57;;;;;;;15.90;8.23;;;;;;;17.24;100.00;100872.13;6247785;28;20218;-87
2023/06/10 07:45:01;;;;;;;12.43;8.20;;;;;;;17.26;100.00;100874.59;6244840;28;20044;-86
2023/06/10 07:48:03;;;;;;;13.60;7.75;;;;;;;17.29;100.00;100871.66;6247553;28;20498;-87
2023/06/10 07:51:05;;;;;;;14.65;8.93;;;;;;;17.37;100.00;100875.13;6240917;28;20045;-87
2023/06/10 07:54:07;;;;;;;11.70;8.50;;;;;;;17.40;100.00;100874.81;6265143;28;20075;-87
2023/06/10 07:57:09;;;;;;;13.90;8.20;;;;;;;17.41;100.00;100868.59;6239405;28;20488;-87
2023/06/10 08:00:11;;;;;;;13.57;8.38;;;;;;;17.43;100.00;100868.44;6250429;28;20037;-87
2023/06/10 08:03:13;;;;;;;12.93;8.73;;;;;;;17.47;100.00;100859.31;6242078;28;20046;-87
2023/06/10 08:06:17;;;;;;;13.23;7.82;;;;;;;17.51;100.00;100867.66;6240075;28;20049;-87
2023/06/10 08:09:18;;;;;;;12.93;7.53;;;;;;;17.62;100.00;100870.81;6241688;28;20068;-87
2023/06/10 08:12:21;;;;;;;14.77;8.10;;;;;;;17.71;100.00;100870.84;6247835;28;20041;-87
2023/06/10 08:15:23;;;;;;;12.73;7.47;;;;;;;17.83;100.00;100873.03;6240964;28;20050;-87
2023/06/10 08:18:25;;;;;;;12.75;7.40;;;;;;;17.92;100.00;100865.19;6235667;28;20038;-87
2023/06/10 08:21:28;;;;;;;14.52;7.50;;;;;;;17.98;100.00;100867.16;6239964;28;20451;-87
2023/06/10 08:24:32;;;;;;;10.18;6.53;;;;;;;18.10;100.00;100865.88;6235432;28;20042;-87
2023/06/10 08:27:34;;;;;;;10.40;6.80;;;;;;;18.14;100.00;100869.00;6238547;28;20219;-87
2023/06/10 08:30:36;;;;;;;10.32;5.90;;;;;;;18.16;100.00;100867.88;6246557;28;20132;-87
2023/06/10 08:33:37;;;;;;;10.05;5.45;;;;;;;18.27;100.00;100866.72;6238228;28;20399;-87
2023/06/10 08:36:39;;;;;;;8.77;5.25;;;;;;;18.42;100.00;100872.13;6240688;28;20167;-87
2023/06/10 08:39:41;;;;;;;8.27;4.78;;;;;;;18.52;100.00;100868.34;6240740;28;20073;-88
2023/06/10 08:43:05;;;;;;;9.65;4.95;;;;;;;18.64;100.00;100862.78;6241288;28;20122;-86
2023/06/10 08:46:09;;;;;;;11.52;5.40;;;;;;;18.68;100.00;100864.91;6232044;28;20045;-87
2023/06/10 08:49:17;;;;;;;7.13;4.68;;;;;;;18.80;100.00;100859.34;6228372;28;20065;-87
2023/06/10 08:52:20;;;;;;;9.25;4.80;;;;;;;18.95;100.00;100847.16;6236557;28;20392;-88
2023/06/10 08:55:26;;;;;;;5.70;4.72;;;;;;;19.08;100.00;100850.09;6235232;28;20411;-87
2023/06/10 08:58:41;;;;;;;9.55;4.90;;;;;;;19.13;100.00;100853.03;6239178;28;20406;-87
2023/06/10 09:01:44;;;;;;;8.77;4.93;;;;;;;19.17;100.00;100855.31;6243935;28;20107;-88
2023/06/10 09:04:48;;;;;;;7.68;4.32;;;;;;;19.26;100.00;100851.69;6260540;28;20040;-87
2023/06/10 09:07:51;;;;;;;8.30;4.30;;;;;;;19.34;100.00;100841.94;6247171;28;20482;-88
2023/06/10 09:10:54;;;;;;;8.00;4.80;;;;;;;19.46;100.00;100850.28;6238949;28;20480;-87
2023/06/10 09:13:56;;;;;;;14.20;5.55;;;;;;;19.69;100.00;100839.84;6238764;28;20567;-88
2023/06/10 09:16:58;;;;;;;6.68;4.65;;;;;;;19.86;100.00;100830.03;6251134;28;20041;-88
2023/06/10 09:20:02;;;;;;;8.95;5.03;;;;;;;20.00;100.00;100837.19;6256268;28;20049;-87
2023/06/10 09:23:05;;;;;;;8.13;4.32;;;;;;;20.06;100.00;100834.84;6262541;28;20037;-87
2023/06/10 09:26:11;;;;;;;10.50;4.28;;;;;;;20.08;100.00;100833.66;6260858;28;20049;-88
2023/06/10 09:29:12;;;;;;;6.15;4.45;;;;;;;20.27;100.00;100829.72;6260645;28;20037;-87
2023/06/10 09:32:17;;;;;;;7.28;4.07;;;;;;;20.40;100.00;100823.88;6254902;28;20479;-87
2023/06/10 09:35:18;;;;;;;8.02;4.45;;;;;;;20.57;100.00;100833.28;6256769;28;20045;-88
2023/06/10 09:38:21;;;;;;;5.88;3.88;;;;;;;20.78;100.00;100824.69;6243057;28;20148;-88
2023/06/10 09:41:40;;;;;;;6.78;4.20;;;;;;;20.99;100.00;100831.03;6253344;28;20052;-88
2023/06/10 09:44:42;;;;;;;4.75;4.10;;;;;;;21.15;100.00;100830.84;6254799;28;20115;-87
2023/06/10 09:47:46;;;;;;;6.50;4.00;;;;;;;21.32;100.00;100835.94;6238304;28;20558;-88
2023/06/10 09:50:49;;;;;;;7.47;4.13;;;;;;;21.38;100.00;100833.34;6243509;28;20399;-87
2023/06/10 09:53:51;;;;;;;7.65;4.10;;;;;;;21.56;100.00;100829.53;6255788;28;20037;-87
2023/06/10 09:56:53;;;;;;;6.47;3.90;;;;;;;21.71;100.00;100825.88;6259635;28;20436;-87
2023/06/10 09:59:55;;;;;;;6.75;4.50;;;;;;;21.80;100.00;100829.19;6235858;28;20115;-87
2023/06/10 10:02:57;;;;;;;6.25;4.20;;;;;;;21.87;100.00;100826.63;6247003;28;20041;-87
2023/06/10 10:06:06;;;;;;;5.50;3.85;;;;;;;21.91;100.00;100825.22;6230051;28;20040;-86
2023/06/10 10:09:08;;;;;;;5.43;4.30;;;;;;;22.01;100.00;100825.75;6244751;28;20057;-88
2023/06/10 10:12:12;;;;;;;6.70;4.15;;;;;;;22.17;100.00;100823.84;6240679;28;20084;-88
2023/06/10 10:15:17;;;;;;;5.22;4.03;;;;;;;22.32;100.00;100827.25;6244472;28;20047;-87
2023/06/10 10:18:25;;;;;;;4.75;4.05;;;;;;;22.48;100.00;100829.59;6233524;28;20145;-88
2023/06/10 10:21:35;;;;;;;7.25;4.50;;;;;;;22.66;100.00;100829.13;6249870;28;20175;-88
2023/06/10 10:24:47;;;;;;;7.18;4.05;;;;;;;22.71;100.00;100832.00;6247139;28;20045;-87
2023/06/10 10:28:05;;;;;;;6.68;4.30;;;;;;;22.82;100.00;100830.63;6246469;28;20037;-88
2023/06/10 10:31:11;;;;;;;8.93;4.65;;;;;;;22.93;100.00;100830.09;6242691;28;20513;-88
2023/06/10 10:34:18;;;;;;;7.60;4.13;;;;;;;23.03;100.00;100824.50;6260671;28;20051;-88
2023/06/10 10:37:21;;;;;;;10.05;4.82;;;;;;;23.17;100.00;100823.50;6246847;28;20463;-87
2023/06/10 10:40:25;;;;;;;17.45;5.30;;;;;;;23.37;100.00;100830.72;6243757;28;20042;-87
2023/06/10 10:43:28;;;;;;;5.20;4.10;;;;;;;23.58;100.00;100816.56;6259195;28;20583;-87
2023/06/10 10:46:30;;;;;;;10.18;4.50;;;;;;;23.70;100.00;100816.75;6263919;28;20131;-88
2023/06/10 10:49:35;;;;;;;5.82;5.20;;;;;;;23.96;100.00;100826.59;6246866;28;20048;-87
2023/06/10 10:52:58;;;;;;;5.78;4.28;;;;;;;24.08;100.00;100823.16;6240297;28;20073;-87
2023/06/10 10:56:09;;;;;;;8.90;4.97;;;;;;;24.19;100.00;100819.06;6226994;28;20391;-88
2023/06/10 10:59:17;;;;;;;8.85;5.35;;;;;;;24.13;100.00;100822.56;6241756;28;20041;-88
2023/06/10 11:02:33;;;;;;;9.27;4.55;;;;;;;24.18;100.00;100820.09;6252838;28;20044;-87
2023/06/10 11:05:38;;;;;;;7.35;5.07;;;;;;;24.34;100.00;100816.22;6246852;28;20406;-87
2023/06/10 11:08:39;;;;;;;6.03;4.72;;;;;;;24.56;100.00;100819.50;6248889;28;20049;-87
2023/06/10 11:11:50;;;;;;;8.68;5.00;;;;;;;24.79;100.00;100807.63;6244195;28;20448;-88
2023/06/10 11:14:59;;;;;;;7.80;5.63;;;;;;;24.93;100.00;100814.50;6235533;28;20053;-88
2023/06/10 11:18:26;;;;;;;10.93;5.18;;;;;;;25.02;100.00;100809.78;6264317;28;20053;-88
2023/06/10 11:21:28;;;;;;;8.05;5.20;;;;;;;25.20;100.00;100811.81;6261515;28;20306;-88
2023/06/10 11:24:30;;;;;;;5.90;5.07;;;;;;;25.42;100.00;100807.81;6241673;28;20204;-88
2023/06/10 11:27:39;;;;;;;8.57;5.40;;;;;;;25.61;100.00;100798.09;6262636;28;20045;-88
2023/06/10 11:30:42;;;;;;;6.82;5.63;;;;;;;25.76;100.00;100795.16;6240135;28;20534;-88
2023/06/10 11:33:44;;;;;;;8.75;5.40;;;;;;;25.98;100.00;100793.78;6246726;28;20402;-88
2023/06/10 11:36:46;;;;;;;6.03;5.30;;;;;;;26.16;100.00;100797.50;6250391;28;20483;-88
2023/06/10 11:39:52;;;;;;;7.90;5.18;;;;;;;26.31;100.00;100800.66;6250728;28;20051;-88
2023/06/10 11:42:55;;;;;;;7.88;6.10;;;;;;;26.53;100.00;100794.97;6262773;28;20486;-88
2023/06/10 11:45:57;;;;;;;8.75;5.50;;;;;;;26.65;100.00;100790.53;6242832;28;20518;-89
2023/06/10 11:49:02;;;;;;;9.93;6.00;;;;;;;26.79;100.00;100796.53;6253186;28;20049;-88
2023/06/10 11:52:05;;;;;;;6.43;5.78;;;;;;;27.00;100.00;100785.41;6248933;28;20128;-89
2023/06/10 11:55:07;;;;;;;7.28;5.57;;;;;;;27.23;100.00;100784.75;6252075;28;20123;-89
2023/06/10 11:58:16;;;;;;;10.73;5.60;;;;;;;27.47;100.00;100784.84;6240353;28;20176;-88
2023/06/10 12:01:22;;;;;;;7.43;5.88;;;;;;;27.71;100.00;100777.72;6243022;28;20065;-89
2023/06/10 12:04:30;;;;;;;6.30;5.40;;;;;;;27.90;100.00;100784.63;6248167;28;20120;-88
2023/06/10 12:07:33;;;;;;;11.20;5.95;;;;;;;28.01;100.00;100777.69;6248508;28;20048;-88
2023/06/10 12:10:40;;;;;;;13.07;6.55;;;;;;;28.20;100.00;100781.06;6257366;28;20042;-88
2023/06/10 12:13:49;;;;;;;7.18;6.47;;;;;;;28.39;100.00;100779.06;6237386;28;20463;-88
2023/06/10 12:16:51;;;;;;;10.43;6.13;;;;;;;28.53;100.00;100769.00;6257268;28;20055;-89
2023/06/10 12:19:53;;;;;;;8.43;6.28;;;;;;;28.70;100.00;100763.75;6246935;28;20037;-88
2023/06/10 12:22:55;;;;;;;7.47;6.05;;;;;;;28.93;100.00;100771.66;6250222;28;20216;-88
2023/06/10 12:25:57;;;;;;;6.90;6.20;;;;;;;29.13;100.00;100767.81;6231924;28;20033;-89
2023/06/10 12:28:59;;;;;;;6.70;5.60;;;;;;;29.34;100.00;100769.81;6256151;28;20049;-88
2023/06/10 12:32:05;;;;;;;7.07;5.93;;;;;;;29.59;100.00;100772.09;6233934;28;20110;-88
2023/06/10 12:35:08;;;;;;;7.55;6.22;;;;;;;29.79;100.00;100763.63;6252566;28;20126;-88
2023/06/10 12:38:12;;;;;;;7.25;6.43;;;;;;;29.98;94.64;100763.38;6236908;28;20263;-88
2023/06/10 12:41:13;;;;;;;6.72;6.10;;;;;;;30.18;98.57;100754.84;6248942;28;20497;-89
2023/06/10 12:44:15;;;;;;;7.18;5.85;;;;;;;30.33;81.24;100755.06;6239155;28;20115;-88
2023/06/10 12:47:17;;;;;;;8.00;6.00;;;;;;;30.47;90.28;100744.84;6239248;28;20519;-88
2023/06/10 12:50:19;;;;;;;7.22;6.35;;;;;;;30.53;80.67;100751.06;6242980;28;20049;-88
2023/06/10 12:53:22;;;;;;;6.82;6.10;;;;;;;30.64;83.95;100747.47;6243119;28;20065;-88
2023/06/10 12:56:24;;;;;;;8.52;6.32;;;;;;;30.86;87.73;100742.94;6239757;28;20056;-88
2023/06/10 12:59:27;;;;;;;9.77;6.10;;;;;;;31.03;75.44;100742.84;6237571;28;20048;-88
2023/06/10 13:02:29;;;;;;;7.60;6.57;;;;;;;31.09;76.52;100741.81;6239090;28;20057;-88
2023/06/10 13:05:32;;;;;;;6.25;5.65;;;;;;;31.24;77.63;100735.81;6238118;28;20203;-88
2023/06/10 13:08:33;;;;;;;6.45;5.95;;;;;;;31.33;74.33;100736.16;6248341;28;20053;-88
2023/06/10 13:11:36;;;;;;;8.73;6.55;;;;;;;31.42;78.45;100740.00;6250772;28;20048;-88
2023/06/10 13:14:37;;;;;;;11.95;6.78;;;;;;;31.50;70.68;100736.06;6249433;28;20511;-88
2023/06/10 13:17:40;;;;;;;9.52;6.60;;;;;;;31.66;66.53;100731.63;6227376;28;20045;-88
2023/06/10 13:20:42;;;;;;;9.43;6.03;;;;;;;31.66;67.08;100727.09;6248549;28;20053;-88
2023/06/10 13:23:47;;;;;;;7.22;6.50;;;;;;;31.67;65.44;100730.56;6240372;28;20052;-88
2023/06/10 13:26:49;;;;;;;7.68;6.95;;;;;;;31.85;65.17;100719.47;6238608;28;20459;-88
2023/06/10 13:29:50;;;;;;;6.43;5.82;;;;;;;31.95;64.18;100727.59;6238783;28;20041;-88
2023/06/10 13:32:52;;;;;;;7.97;6.03;;;;;;;32.11;60.74;100722.31;6258078;28;20041;-88
2023/06/10 13:35:54;;;;;;;6.53;5.82;;;;;;;32.22;60.74;100710.56;6238291;28;20103;-88
2023/06/10 13:38:56;;;;;;;6.63;5.85;;;;;;;32.29;63.07;100713.00;6248202;28;20037;-88
2023/06/10 13:41:58;;;;;;;6.43;5.82;;;;;;;32.39;59.43;100708.47;6240328;28;20048;-87
2023/06/10 13:45:00;;;;;;;9.77;5.80;;;;;;;32.43;59.92;100700.75;6238953;28;20068;-88
2023/06/10 13:48:04;;;;;;;6.63;6.03;;;;;;;32.48;62.14;100698.06;6241109;28;20076;-88
2023/06/10 13:51:06;;;;;;;7.65;5.70;;;;;;;32.61;62.15;100702.97;6260545;28;20041;-88
2023/06/10 13:54:08;;;;;;;6.45;5.82;;;;;;;32.80;58.31;100700.59;6237310;28;20046;-88
2023/06/10 13:57:10;;;;;;;8.43;6.18;;;;;;;32.86;57.79;100697.94;6232796;28;20077;-88
2023/06/10 14:00:13;;;;;;;8.38;6.22;;;;;;;32.91;57.57;100693.38;6248862;28;20487;-88